Ireland, Indiana
Current Conditions -  °F | °C
As of 9:55 AM on Friday 31 Oct 2014 (Local Time) from KHNB Reporting Station
Overcast Overcast  
Wind Chill: 40°   Ceiling: 1600
Heat Index: 46°   Visibility: 10mi
Dew Point: 39°   Wind: 14mph
Humidity: 76%   Direction: 340°NNW
Pressure: 30.06"   Gusts: 22mph
Location:  38.41°N, 87°W
Report Text: KHNB 311455Z AUTO 34012G19KT 10SM BKN016 OVC037 08/04 A3006 RMK AO1 52007
Loading
Personal Weather Stations






























Interactive Weather Map
Tropical Storm Tracking
New forecast layout! Learn more

10-Day Weather Forecast

Advertisements
Track Severe Weather on mobile